Time;durP1;ratioP1;P1;durP2;ratioP2;P2;SDS_P1;SDS_P2;PMS_P1;PMS_P2;Temp;Humidity;BMP_temperature;BMP_pressure;BME280_temperature;BME280_humidity;BME280_pressure;Samples;Min_cycle;Max_cycle;Signal;HPM_P1;HPM_P2
2022/04/05 00:00:45;;;;;;;18.37;12.00;;;;;;;0.09;85.71;99992.27;1779929;80;21233;-82
2022/04/05 00:03:51;;;;;;;29.07;16.55;;;;;;;0.08;85.76;99992.77;1780200;80;21200;-76
2022/04/05 00:06:58;;;;;;;30.35;17.60;;;;;;;0.05;85.66;99990.33;1780065;80;21763;-76
2022/04/05 00:10:04;;;;;;;28.27;16.12;;;;;;;0.02;85.72;99994.59;1778610;80;21714;-76
2022/04/05 00:13:11;;;;;;;19.73;13.35;;;;;;;-0.06;85.50;99987.09;1780050;80;21157;-82
2022/04/05 00:16:18;;;;;;;16.60;12.40;;;;;;;-0.16;85.51;99992.80;1779947;80;21181;-76
2022/04/05 00:19:23;;;;;;;19.02;12.13;;;;;;;-0.27;85.69;99984.21;1778922;80;21193;-76
2022/04/05 00:22:30;;;;;;;20.32;13.10;;;;;;;-0.32;85.92;99985.53;1780154;80;21181;-77
2022/04/05 00:25:36;;;;;;;16.07;10.80;;;;;;;-0.35;86.26;99985.27;1780314;80;21446;-77
2022/04/05 00:28:41;;;;;;;17.75;13.08;;;;;;;-0.37;86.49;99989.05;1780179;80;21449;-82
2022/04/05 00:31:47;;;;;;;23.05;13.40;;;;;;;-0.41;86.67;99983.05;1779919;80;21754;-76
2022/04/05 00:34:54;;;;;;;18.98;12.18;;;;;;;-0.43;86.94;99990.34;1780116;80;21150;-82
2022/04/05 00:38:01;;;;;;;18.80;11.70;;;;;;;-0.47;86.93;99991.58;1780089;80;21181;-82
2022/04/05 00:41:06;;;;;;;23.62;12.40;;;;;;;-0.53;87.06;99988.83;1780210;80;21130;-76
2022/04/05 00:44:12;;;;;;;19.92;12.43;;;;;;;-0.58;87.12;99983.43;1780040;80;21307;-76
2022/04/05 00:47:23;;;;;;;24.32;13.48;;;;;;;-0.64;87.35;99977.17;1780079;80;22122;-76
2022/04/05 00:50:29;;;;;;;21.80;12.78;;;;;;;-0.71;87.63;99980.78;1780086;80;21663;-76
2022/04/05 00:53:34;;;;;;;17.00;12.63;;;;;;;-0.75;87.89;99979.77;1780071;80;21751;-82
2022/04/05 00:56:41;;;;;;;17.87;12.33;;;;;;;-0.79;88.15;99979.16;1780061;80;21192;-82
2022/04/05 00:59:51;;;;;;;27.37;13.40;;;;;;;-0.83;88.29;99977.18;1780169;80;21141;-82
2022/04/05 01:02:57;;;;;;;17.90;13.13;;;;;;;-0.87;88.50;99977.03;1780237;80;21735;-82
2022/04/05 01:06:04;;;;;;;26.40;13.25;;;;;;;-0.93;88.79;99968.09;1780067;80;21695;-76
2022/04/05 01:09:09;;;;;;;21.40;13.75;;;;;;;-0.94;89.15;99966.38;1780125;80;21754;-80
2022/04/05 01:12:18;;;;;;;22.73;13.28;;;;;;;-0.96;89.37;99972.33;1780027;80;21181;-76
2022/04/05 01:15:24;;;;;;;23.92;14.35;;;;;;;-0.98;89.57;99964.02;1764039;80;21129;-82
2022/04/05 01:18:31;;;;;;;20.75;13.75;;;;;;;-0.99;89.87;99966.31;1780198;80;21209;-75
2022/04/05 01:21:36;;;;;;;19.80;13.62;;;;;;;-0.98;90.11;99967.56;1780125;80;21192;-82
2022/04/05 01:24:42;;;;;;;22.93;12.88;;;;;;;-0.95;90.34;99975.38;1780178;80;21702;-77
2022/04/05 01:27:47;;;;;;;20.30;13.30;;;;;;;-0.93;90.39;99973.45;1780228;80;21756;-76
2022/04/05 01:30:47;;;;;;;19.30;13.32;;;;;;;-0.94;90.39;99969.06;1780199;80;21181;-76
2022/04/05 01:33:39;;;;;;;22.52;14.87;;;;;;;-0.96;90.39;99972.81;1780248;80;21212;-82
2022/04/05 01:36:54;;;;;;;24.07;13.68;;;;;;;-0.98;90.38;99962.68;1780233;80;21177;-76
2022/04/05 01:40:01;;;;;;;23.22;12.47;;;;;;;-1.05;90.36;99961.77;1780188;80;21144;-76
2022/04/05 01:43:06;;;;;;;26.45;12.70;;;;;;;-1.09;90.46;99952.21;1780134;80;21754;-75
2022/04/05 01:46:11;;;;;;;23.67;13.88;;;;;;;-1.16;90.58;99944.24;1780162;80;21184;-76
2022/04/05 01:49:17;;;;;;;21.17;13.50;;;;;;;-1.23;90.77;99949.66;1780147;80;21699;-82
2022/04/05 01:52:23;;;;;;;19.82;12.98;;;;;;;-1.30;91.02;99951.09;1780188;80;21778;-83
2022/04/05 01:55:29;;;;;;;19.02;13.08;;;;;;;-1.34;91.35;99947.76;1780133;80;21726;-75
2022/04/05 01:58:34;;;;;;;25.40;13.95;;;;;;;-1.36;91.74;99951.53;1780121;80;21181;-75
2022/04/05 02:01:40;;;;;;;23.60;14.30;;;;;;;-1.40;92.12;99945.52;1780117;80;21699;-75
2022/04/05 02:04:46;;;;;;;24.00;14.33;;;;;;;-1.39;92.48;99944.55;1780298;80;21711;-81
2022/04/05 02:07:51;;;;;;;21.90;14.47;;;;;;;-1.41;92.63;99942.92;1780053;80;21730;-81
2022/04/05 02:10:57;;;;;;;23.52;13.75;;;;;;;-1.44;92.74;99949.38;1778542;80;21164;-82
2022/04/05 02:14:03;;;;;;;31.23;15.15;;;;;;;-1.44;92.84;99948.05;1780164;80;21169;-75
2022/04/05 02:17:09;;;;;;;23.30;13.72;;;;;;;-1.45;92.87;99940.97;1761539;80;21161;-82
2022/04/05 02:20:17;;;;;;;23.40;14.53;;;;;;;-1.46;92.99;99939.23;1779973;80;21177;-82
2022/04/05 02:23:25;;;;;;;22.75;15.10;;;;;;;-1.47;93.05;99948.25;1780098;80;21189;-82
2022/04/05 02:26:35;;;;;;;21.70;14.05;;;;;;;-1.48;93.10;99953.25;1780241;80;21169;-75
2022/04/05 02:29:42;;;;;;;22.85;13.45;;;;;;;-1.48;93.21;99945.69;1780181;80;21145;-75
2022/04/05 02:32:48;;;;;;;20.60;14.25;;;;;;;-1.49;93.36;99943.98;1780014;80;21170;-81
2022/04/05 02:35:54;;;;;;;19.27;13.08;;;;;;;-1.48;93.59;99946.54;1780138;80;21701;-82
2022/04/05 02:39:00;;;;;;;23.60;13.30;;;;;;;-1.48;93.65;99951.05;1780157;80;21703;-76
2022/04/05 02:42:07;;;;;;;20.57;13.32;;;;;;;-1.50;93.68;99955.19;1780116;80;21184;-75
2022/04/05 02:45:13;;;;;;;20.45;13.50;;;;;;;-1.51;93.78;99949.91;1780135;80;21180;-80
2022/04/05 02:48:18;;;;;;;24.80;14.47;;;;;;;-1.53;93.96;99950.03;1779947;80;21145;-82
2022/04/05 02:51:26;;;;;;;28.98;16.40;;;;;;;-1.53;94.16;99954.55;1780121;80;21141;-81
2022/04/05 02:54:33;;;;;;;29.55;16.73;;;;;;;-1.54;94.33;99951.01;1780152;80;21177;-80
2022/04/05 02:57:38;;;;;;;26.42;14.73;;;;;;;-1.53;94.46;99947.84;1780105;80;21168;-82
2022/04/05 03:00:46;;;;;;;19.87;14.13;;;;;;;-1.53;94.62;99943.33;1763845;80;21153;-75
2022/04/05 03:03:52;;;;;;;31.75;17.15;;;;;;;-1.56;94.70;99942.19;1780019;80;21181;-82
2022/04/05 03:06:57;;;;;;;31.70;19.42;;;;;;;-1.58;94.90;99942.80;1780065;80;21188;-82
2022/04/05 03:10:03;;;;;;;25.40;16.62;;;;;;;-1.59;95.12;99941.09;1780106;80;21177;-82
2022/04/05 03:13:12;;;;;;;37.38;21.15;;;;;;;-1.60;95.28;99942.03;1780068;80;21216;-82
2022/04/05 03:16:20;;;;;;;36.75;20.88;;;;;;;-1.62;95.43;99946.66;1759856;80;21559;-75
2022/04/05 03:19:26;;;;;;;38.35;19.55;;;;;;;-1.62;95.67;99943.97;1778519;80;21642;-82
2022/04/05 03:22:34;;;;;;;31.65;18.45;;;;;;;-1.62;95.74;99938.13;1774018;79;21193;-82
2022/04/05 03:25:40;;;;;;;27.10;17.00;;;;;;;-1.59;95.75;99945.11;1770364;81;21200;-76
2022/04/05 03:28:49;;;;;;;31.70;20.17;;;;;;;-1.59;95.66;99947.80;1771711;81;21714;-82
2022/04/05 03:31:54;;;;;;;31.23;18.75;;;;;;;-1.60;95.56;99942.03;1770326;81;21193;-81
2022/04/05 03:34:53;;;;;;;39.13;22.15;;;;;;;-1.60;95.68;99942.03;1771858;81;21217;-82
2022/04/05 03:37:47;;;;;;;32.03;21.33;;;;;;;-1.57;95.93;99943.17;1771856;81;21177;-80
2022/04/05 03:40:35;;;;;;;36.85;23.65;;;;;;;-1.50;96.30;99940.44;1770421;81;21146;-82
2022/04/05 03:43:28;;;;;;;33.63;21.42;;;;;;;-1.44;96.50;99941.34;1771889;81;21189;-76
2022/04/05 03:46:15;;;;;;;35.95;21.17;;;;;;;-1.35;96.60;99946.05;1771862;81;21154;-82
2022/04/05 03:49:08;;;;;;;32.28;17.92;;;;;;;-1.26;96.62;99938.31;1771793;81;21181;-76
2022/04/05 03:51:56;;;;;;;41.80;23.62;;;;;;;-1.18;96.63;99943.97;1771851;81;21727;-76
2022/04/05 03:54:50;;;;;;;66.60;36.05;;;;;;;-1.11;96.67;99953.30;1771910;81;21791;-82
2022/04/05 03:57:36;;;;;;;56.30;30.50;;;;;;;-1.02;96.70;99943.25;1771826;81;21182;-82
2022/04/05 04:00:31;;;;;;;47.10;24.55;;;;;;;-0.94;96.74;99950.27;1771911;81;21688;-82
2022/04/05 04:03:19;;;;;;;39.45;23.50;;;;;;;-0.85;96.85;99949.59;1771558;80;21141;-82
2022/04/05 04:06:11;;;;;;;34.40;20.00;;;;;;;-0.74;96.99;99950.63;1771864;81;21130;-76
2022/04/05 04:09:17;;;;;;;34.58;21.65;;;;;;;-0.65;96.99;99944.09;1771914;81;21150;-77
2022/04/05 04:12:23;;;;;;;40.80;24.02;;;;;;;-0.54;97.05;99943.28;1770196;81;21751;-76
2022/04/05 04:15:29;;;;;;;37.17;22.32;;;;;;;-0.40;97.18;99947.63;1771557;81;21228;-76
2022/04/05 04:18:35;;;;;;;33.13;20.60;;;;;;;-0.23;97.25;99944.52;1770401;81;21142;-76
2022/04/05 04:21:41;;;;;;;40.05;21.33;;;;;;;-0.02;97.24;99950.08;1771676;81;21196;-76
2022/04/05 04:24:49;;;;;;;31.77;18.55;;;;;;;0.20;97.15;99947.45;1783792;80;21776;-82
2022/04/05 04:27:56;;;;;;;35.03;20.17;;;;;;;0.43;96.89;99953.73;1784200;80;21227;-82
2022/04/05 04:31:02;;;;;;;34.05;17.67;;;;;;;0.62;96.57;99945.06;1785201;80;21749;-82
2022/04/05 04:34:08;;;;;;;30.43;17.10;;;;;;;0.79;96.15;99953.13;1784896;80;21241;-83
2022/04/05 04:37:15;;;;;;;52.35;26.95;;;;;;;0.89;95.44;99950.55;1783972;80;21766;-77
2022/04/05 04:40:22;;;;;;;30.88;18.82;;;;;;;1.02;95.14;99949.93;1785170;80;21714;-79
2022/04/05 04:43:28;;;;;;;35.48;18.48;;;;;;;1.26;95.21;99951.97;1783730;80;21223;-78
2022/04/05 04:46:34;;;;;;;28.40;17.23;;;;;;;1.52;95.08;99948.48;1784474;80;21264;-77
2022/04/05 04:49:40;;;;;;;30.23;17.05;;;;;;;1.74;94.71;99956.11;1784784;80;21212;-76
2022/04/05 04:52:48;;;;;;;27.00;16.75;;;;;;;1.93;94.27;99961.70;1783684;80;21177;-83
2022/04/05 04:55:54;;;;;;;28.90;15.60;;;;;;;2.13;94.04;99957.30;1783592;80;21800;-76
2022/04/05 04:59:02;;;;;;;24.63;15.03;;;;;;;2.35;93.84;99966.23;1785059;80;21691;-79
2022/04/05 05:02:08;;;;;;;27.60;16.35;;;;;;;2.61;93.82;99963.98;1784817;80;21225;-76
2022/04/05 05:05:14;;;;;;;32.63;16.52;;;;;;;2.71;93.02;99964.89;1784424;80;22266;-76
2022/04/05 05:08:20;;;;;;;26.87;15.75;;;;;;;2.75;92.46;99964.48;1785236;80;21188;-83
2022/04/05 05:11:25;;;;;;;27.67;14.68;;;;;;;2.82;92.14;99968.84;1785100;80;21157;-76
2022/04/05 05:14:31;;;;;;;26.27;14.98;;;;;;;2.90;92.01;99973.08;1785203;80;21506;-76
2022/04/05 05:17:36;;;;;;;28.15;15.15;;;;;;;2.94;91.56;99973.17;1784419;80;21157;-82
2022/04/05 05:20:42;;;;;;;24.37;14.35;;;;;;;2.94;91.36;99970.47;1784736;80;21201;-76
2022/04/05 05:23:49;;;;;;;19.42;12.47;;;;;;;3.00;91.26;99971.27;1780103;80;22161;-76
2022/04/05 05:26:55;;;;;;;25.23;14.43;;;;;;;3.04;91.03;99963.25;1770556;81;21197;-77
2022/04/05 05:30:02;;;;;;;25.02;13.90;;;;;;;3.03;90.93;99971.51;1770807;81;21158;-79
2022/04/05 05:33:08;;;;;;;23.87;12.20;;;;;;;3.01;90.95;99973.00;1769892;81;21228;-82
2022/04/05 05:36:13;;;;;;;22.80;13.55;;;;;;;3.06;91.17;99967.19;1770032;81;21253;-83
2022/04/05 05:39:19;;;;;;;22.87;14.20;;;;;;;3.11;91.33;99963.58;1768783;81;21170;-83
2022/04/05 05:42:24;;;;;;;23.52;14.43;;;;;;;3.16;91.20;99970.78;1769046;81;21182;-77
2022/04/05 05:45:30;;;;;;;23.62;13.72;;;;;;;3.20;90.98;99960.52;1770397;81;21174;-83
2022/04/05 05:48:36;;;;;;;27.70;16.30;;;;;;;3.26;90.56;99949.18;1769325;81;21244;-76
2022/04/05 05:51:43;;;;;;;26.25;15.60;;;;;;;3.35;90.40;99945.65;1768749;81;21220;-77
2022/04/05 05:54:50;;;;;;;22.05;13.35;;;;;;;3.48;90.30;99945.37;1769041;80;21736;-76
2022/04/05 05:57:56;;;;;;;21.73;13.10;;;;;;;3.59;89.88;99943.91;1769133;81;21201;-77
2022/04/05 06:01:03;;;;;;;18.52;11.00;;;;;;;3.72;89.47;99943.64;1768718;81;21606;-77
2022/04/05 06:04:11;;;;;;;24.27;13.83;;;;;;;3.87;89.04;99945.42;1768873;81;21177;-76
2022/04/05 06:07:17;;;;;;;19.73;11.50;;;;;;;4.07;88.63;99934.94;1769981;81;21208;-77
2022/04/05 06:10:25;;;;;;;16.05;10.43;;;;;;;4.41;88.42;99938.52;1771426;81;21165;-78
2022/04/05 06:13:31;;;;;;;20.80;12.03;;;;;;;4.75;87.66;99930.71;1771464;81;21181;-83
2022/04/05 06:16:37;;;;;;;14.28;10.08;;;;;;;4.99;85.66;99936.98;1771335;81;21201;-83
2022/04/05 06:19:44;;;;;;;15.53;11.03;;;;;;;5.15;83.55;99929.55;1770520;81;21745;-77
2022/04/05 06:23:01;;;;;;;15.38;10.58;;;;;;;5.16;81.92;99936.17;1769463;79;21763;-77
2022/04/05 06:26:07;;;;;;;12.73;8.55;;;;;;;5.18;80.90;99934.69;1776538;80;21186;-77
2022/04/05 06:29:13;;;;;;;16.02;10.60;;;;;;;5.18;80.89;99934.18;1778944;80;21729;-82
2022/04/05 06:32:12;;;;;;;17.23;10.60;;;;;;;5.20;80.64;99926.73;1747717;80;21236;-79
2022/04/05 06:35:07;;;;;;;18.85;11.25;;;;;;;5.32;81.55;99924.17;1748002;82;21177;-82
2022/04/05 06:38:13;;;;;;;17.48;9.68;;;;;;;5.53;82.83;99922.53;1772182;80;21802;-77
2022/04/05 06:41:18;;;;;;;16.35;9.83;;;;;;;5.72;82.87;99922.89;1778797;79;21174;-77
2022/04/05 06:44:24;;;;;;;15.75;9.73;;;;;;;5.81;82.32;99923.33;1762110;80;21153;-82
2022/04/05 06:47:29;;;;;;;17.75;8.78;;;;;;;5.86;81.92;99922.86;1754713;80;21161;-77
2022/04/05 06:50:28;;;;;;;12.93;8.75;;;;;;;5.93;82.25;99906.81;1749391;82;21722;-78
2022/04/05 06:53:34;;;;;;;15.72;9.08;;;;;;;6.03;82.62;99915.25;1751154;80;21185;-77
2022/04/05 06:56:41;;;;;;;17.02;8.65;;;;;;;6.15;83.60;99913.12;1740248;82;21202;-83
2022/04/05 06:59:40;;;;;;;9.55;6.12;;;;;;;6.33;82.85;99905.80;1718390;82;21205;-83
2022/04/05 07:02:47;;;;;;;14.83;8.23;;;;;;;6.56;80.82;99918.35;1733637;82;21266;-76
2022/04/05 07:05:52;;;;;;;20.30;7.87;;;;;;;6.77;79.65;99910.31;1712639;83;21778;-77
2022/04/05 07:08:59;;;;;;;14.43;8.70;;;;;;;6.89;77.05;99913.95;1705056;83;21178;-83
2022/04/05 07:12:07;;;;;;;10.23;7.65;;;;;;;6.91;75.92;99910.55;1721329;82;21221;-83
2022/04/05 07:15:13;;;;;;;13.70;7.28;;;;;;;6.91;75.60;99912.42;1709890;82;21694;-76
2022/04/05 07:18:19;;;;;;;12.53;7.20;;;;;;;6.91;76.28;99907.83;1723502;81;21175;-77
2022/04/05 07:21:25;;;;;;;12.03;7.25;;;;;;;6.98;75.42;99904.48;1716087;82;21726;-83
2022/04/05 07:24:31;;;;;;;12.88;6.72;;;;;;;6.93;74.77;99904.13;1713523;83;21662;-82
2022/04/05 07:27:36;;;;;;;16.55;7.70;;;;;;;6.89;74.90;99904.44;1712942;81;21212;-83
2022/04/05 07:30:41;;;;;;;9.03;6.65;;;;;;;6.94;72.87;99901.23;1720304;83;21220;-77
2022/04/05 07:33:47;;;;;;;11.40;6.72;;;;;;;6.98;73.04;99897.17;1683911;85;21187;-76
2022/04/05 07:36:53;;;;;;;8.33;6.10;;;;;;;7.08;73.44;99901.13;1696897;83;21225;-83
2022/04/05 07:39:52;;;;;;;16.32;6.47;;;;;;;7.21;70.68;99896.59;1704496;83;21168;-76
2022/04/05 07:42:48;;;;;;;9.85;6.50;;;;;;;7.39;71.07;99887.81;1700074;83;21792;-83
2022/04/05 07:45:54;;;;;;;8.08;5.80;;;;;;;7.52;71.18;99892.23;1690213;85;21734;-76
2022/04/05 07:48:59;;;;;;;10.05;5.95;;;;;;;7.66;66.88;99882.56;1690083;85;21182;-83
2022/04/05 07:52:05;;;;;;;11.93;6.28;;;;;;;7.78;66.73;99878.51;1690082;85;21204;-82
2022/04/05 07:55:10;;;;;;;10.40;5.85;;;;;;;7.96;67.30;99875.63;1698717;82;21205;-82
2022/04/05 07:58:15;;;;;;;8.15;6.15;;;;;;;8.12;66.89;99870.17;1730610;82;21169;-83
2022/04/05 08:01:21;;;;;;;7.28;5.37;;;;;;;8.25;66.32;99871.53;1732358;81;21722;-83
2022/04/05 08:04:29;;;;;;;10.32;5.12;;;;;;;8.28;62.11;99869.32;1725368;83;21225;-83
2022/04/05 08:07:35;;;;;;;8.65;6.10;;;;;;;8.19;61.20;99858.09;1716777;83;21173;-83
2022/04/05 08:10:42;;;;;;;10.98;6.00;;;;;;;8.16;60.83;99853.83;1737494;82;21148;-83
2022/04/05 08:13:47;;;;;;;7.20;4.90;;;;;;;8.22;61.61;99846.83;1720704;83;21205;-82
2022/04/05 08:16:56;;;;;;;8.38;5.12;;;;;;;8.42;62.37;99844.12;1709358;83;21209;-83
2022/04/05 08:19:56;;;;;;;8.45;5.33;;;;;;;8.63;61.03;99842.69;1734149;82;21192;-83
2022/04/05 08:23:02;;;;;;;8.88;6.03;;;;;;;8.67;59.74;99836.72;1685330;83;21214;-83
2022/04/05 08:26:08;;;;;;;9.60;6.12;;;;;;;8.63;58.86;99834.52;1717374;82;21217;-78
2022/04/05 08:29:14;;;;;;;8.65;6.03;;;;;;;8.60;58.85;99832.97;1712976;83;21168;-77
2022/04/05 08:32:21;;;;;;;11.08;5.90;;;;;;;8.53;59.11;99829.78;1740533;81;21208;-77
2022/04/05 08:35:27;;;;;;;8.20;5.55;;;;;;;8.53;59.34;99825.69;1756232;81;21197;-79
2022/04/05 08:38:33;;;;;;;10.95;6.20;;;;;;;8.53;59.04;99825.69;1763290;81;21220;-83
2022/04/05 08:41:43;;;;;;;7.08;5.70;;;;;;;8.53;59.36;99815.63;1771507;81;21211;-83
2022/04/05 08:44:50;;;;;;;8.43;5.87;;;;;;;8.52;57.87;99817.18;1771703;81;21715;-83
2022/04/05 08:47:59;;;;;;;13.58;6.20;;;;;;;8.44;57.70;99815.31;1766471;81;21165;-77
2022/04/05 08:51:05;;;;;;;8.58;5.22;;;;;;;8.38;58.25;99801.88;1740464;82;21710;-77
2022/04/05 08:54:11;;;;;;;8.88;5.67;;;;;;;8.45;58.92;99805.59;1739552;82;21889;-84
2022/04/05 08:57:17;;;;;;;6.85;5.10;;;;;;;8.58;58.34;99794.15;1750967;81;21759;-77
2022/04/05 09:00:23;;;;;;;7.62;5.40;;;;;;;8.67;58.77;99798.55;1761447;81;21209;-79
2022/04/05 09:03:32;;;;;;;6.47;5.37;;;;;;;8.74;57.40;99794.58;1770595;79;21197;-84
2022/04/05 09:06:38;;;;;;;11.68;6.03;;;;;;;8.80;56.72;99787.56;1770577;79;21197;-77
2022/04/05 09:09:39;;;;;;;11.90;6.60;;;;;;;8.87;56.55;99785.84;1770839;81;21228;-83
2022/04/05 09:12:56;;;;;;;7.90;6.17;;;;;;;9.00;57.26;99782.55;1756463;80;21180;-83
2022/04/05 09:16:08;;;;;;;7.75;6.15;;;;;;;9.14;56.22;99791.33;1767817;80;21192;-82
2022/04/05 09:19:21;;;;;;;7.20;6.08;;;;;;;9.19;52.78;99782.94;1760491;81;21182;-84
2022/04/05 09:22:39;;;;;;;9.20;6.03;;;;;;;9.11;51.84;99772.58;1746648;80;21160;-84
2022/04/05 09:25:45;;;;;;;8.45;6.17;;;;;;;9.04;52.03;99770.25;1769496;81;21566;-84
2022/04/05 09:28:53;;;;;;;8.18;6.40;;;;;;;9.05;52.63;99766.48;1740279;79;21185;-83
2022/04/05 09:31:59;;;;;;;9.00;5.97;;;;;;;9.11;52.51;99769.85;1751193;81;21754;-77
2022/04/05 09:35:05;;;;;;;8.40;5.95;;;;;;;9.22;52.40;99753.05;1756448;81;21129;-83
2022/04/05 09:38:21;;;;;;;11.80;5.95;;;;;;;9.37;53.76;99748.53;1754765;81;21165;-77
2022/04/05 09:41:31;;;;;;;7.17;4.97;;;;;;;9.61;53.23;99752.94;1751249;81;21759;-84
2022/04/05 09:44:40;;;;;;;7.37;5.50;;;;;;;9.72;51.76;99734.73;1766533;81;21137;-78
2022/04/05 09:47:47;;;;;;;10.72;5.53;;;;;;;9.83;51.77;99733.95;1734361;81;21196;-84
2022/04/05 09:51:16;;;;;;;8.18;5.12;;;;;;;10.01;49.27;99724.05;1756945;81;21727;-77
2022/04/05 09:54:32;;;;;;;5.97;4.78;;;;;;;10.06;50.04;99739.36;1733940;82;21209;-83
2022/04/05 09:57:38;;;;;;;8.08;5.30;;;;;;;10.04;49.11;99728.63;1734456;81;21208;-78
2022/04/05 10:00:44;;;;;;;6.05;5.00;;;;;;;9.95;48.65;99729.23;1745943;81;21127;-83
2022/04/05 10:04:03;;;;;;;15.90;4.90;;;;;;;9.93;49.34;99717.66;1734840;82;21165;-78
2022/04/05 10:07:10;;;;;;;9.43;5.12;;;;;;;9.99;49.57;99716.89;1734842;82;21208;-84
2022/04/05 10:10:15;;;;;;;6.87;4.85;;;;;;;10.18;51.54;99702.34;1734728;82;21192;-84
2022/04/05 10:13:21;;;;;;;14.20;5.45;;;;;;;10.42;49.39;99703.97;1734882;82;21772;-83
2022/04/05 10:16:26;;;;;;;7.60;5.40;;;;;;;10.46;49.39;99708.87;1735389;82;21201;-77
2022/04/05 10:19:35;;;;;;;7.25;4.65;;;;;;;10.48;49.68;99695.84;1735385;82;21177;-84
2022/04/05 10:22:40;;;;;;;6.70;4.78;;;;;;;10.52;49.25;99691.37;1745521;81;21177;-77
2022/04/05 10:25:45;;;;;;;8.95;4.97;;;;;;;10.59;48.97;99688.22;1771725;81;21190;-77
2022/04/05 10:28:54;;;;;;;8.40;5.50;;;;;;;10.61;49.18;99680.66;1770097;81;21182;-83
2022/04/05 10:32:16;;;;;;;5.50;4.45;;;;;;;10.69;48.98;99680.55;1771235;81;21700;-84
2022/04/05 10:35:22;;;;;;;5.55;4.42;;;;;;;10.72;49.05;99670.57;1761463;81;21688;-77
2022/04/05 10:38:30;;;;;;;8.98;5.05;;;;;;;10.72;48.40;99661.84;1742687;80;21204;-77
2022/04/05 10:41:35;;;;;;;7.08;4.60;;;;;;;10.71;48.64;99660.16;1771262;80;21161;-77
2022/04/05 10:44:41;;;;;;;6.30;4.75;;;;;;;10.71;48.44;99656.57;1768925;81;21122;-77
2022/04/05 10:48:23;;;;;;;6.65;4.45;;;;;;;10.74;48.53;99660.30;1734861;82;21714;-83
2022/04/05 10:51:31;;;;;;;5.55;4.28;;;;;;;10.81;49.38;99652.16;1757762;81;21691;-77
2022/04/05 10:54:37;;;;;;;8.38;4.70;;;;;;;10.81;48.39;99635.22;1750424;81;21140;-78
2022/04/05 10:57:46;;;;;;;6.72;4.00;;;;;;;10.84;48.73;99635.36;1716528;81;21172;-77
2022/04/05 11:00:51;;;;;;;6.65;4.00;;;;;;;10.92;48.89;99632.52;1750873;81;21118;-78
2022/04/05 11:04:17;;;;;;;8.88;4.20;;;;;;;11.06;48.84;99607.49;1712624;81;21137;-79
2022/04/05 11:07:21;;;;;;;7.75;4.53;;;;;;;11.14;47.89;99621.02;1750510;81;21769;-83
2022/04/05 11:10:36;;;;;;;5.83;4.28;;;;;;;11.05;47.57;99617.56;1740923;81;21743;-84
2022/04/05 11:13:50;;;;;;;5.97;4.03;;;;;;;10.98;48.64;99618.88;1734577;82;21173;-83
2022/04/05 11:16:56;;;;;;;11.75;4.10;;;;;;;10.89;46.32;99610.47;1673291;85;21268;-77
2022/04/05 11:20:03;;;;;;;6.05;4.03;;;;;;;10.72;47.23;99601.66;1734740;82;21770;-77
2022/04/05 11:23:08;;;;;;;6.80;4.45;;;;;;;10.62;47.43;99598.92;1733667;82;21204;-77
2022/04/05 11:26:41;;;;;;;6.92;4.03;;;;;;;10.53;47.02;99594.62;1734858;82;21220;-77
2022/04/05 11:29:45;;;;;;;5.47;4.17;;;;;;;10.57;47.87;99594.56;1735400;81;22050;-82
2022/04/05 11:33:18;;;;;;;5.33;3.95;;;;;;;10.60;46.83;99577.78;1734309;82;21221;-83
2022/04/05 11:36:28;;;;;;;8.23;5.00;;;;;;;10.58;46.40;99589.41;1735054;82;21213;-76
2022/04/05 11:39:35;;;;;;;7.80;4.20;;;;;;;10.60;46.74;99584.09;1735209;82;21173;-76
2022/04/05 11:42:43;;;;;;;5.95;4.25;;;;;;;10.60;46.62;99575.89;1733904;82;21185;-77
2022/04/05 11:45:49;;;;;;;8.33;4.05;;;;;;;10.58;48.00;99573.84;1735449;82;21157;-76
2022/04/05 11:49:02;;;;;;;8.55;4.78;;;;;;;10.65;47.30;99565.73;1735417;82;21145;-81
2022/04/05 11:52:07;;;;;;;6.87;3.98;;;;;;;10.61;46.30;99563.05;1734857;82;21876;-77
2022/04/05 11:59:03;;;;;;;6.75;4.05;;;;;;;10.49;46.25;99559.48;1735560;81;21181;-76
2022/04/05 12:02:09;;;;;;;5.95;3.80;;;;;;;10.45;47.73;99547.76;1768368;81;21204;-84
2022/04/05 12:05:16;;;;;;;6.10;4.03;;;;;;;10.44;46.34;99557.85;1769098;81;21145;-77
2022/04/05 12:08:22;;;;;;;6.60;3.87;;;;;;;10.43;45.89;99552.55;1768330;81;21204;-77
2022/04/05 12:11:30;;;;;;;5.08;3.40;;;;;;;10.45;45.07;99547.23;1768235;81;21165;-76
2022/04/05 12:14:31;;;;;;;5.95;3.77;;;;;;;10.41;45.70;99550.55;1754313;81;21208;-77
2022/04/05 12:17:37;;;;;;;10.65;4.15;;;;;;;10.28;45.60;99536.20;1733387;82;21197;-83
2022/04/05 12:20:44;;;;;;;5.83;3.62;;;;;;;10.24;46.83;99548.03;1733190;82;21169;-83
2022/04/05 12:23:50;;;;;;;5.58;3.42;;;;;;;10.26;45.56;99534.20;1733503;82;21185;-82
2022/04/05 12:26:56;;;;;;;9.13;4.08;;;;;;;10.25;46.36;99533.84;1733569;82;21177;-77
2022/04/05 12:30:06;;;;;;;6.25;3.50;;;;;;;10.28;47.04;99534.00;1753134;81;21165;-83
2022/04/05 12:33:11;;;;;;;5.87;3.35;;;;;;;10.33;46.75;99539.20;1769907;80;22127;-83
2022/04/05 12:36:17;;;;;;;5.87;4.00;;;;;;;10.30;45.37;99538.21;1770004;81;21173;-83
2022/04/05 12:39:33;;;;;;;6.00;3.55;;;;;;;10.24;46.38;99523.96;1770417;81;21201;-76
2022/04/05 12:42:49;;;;;;;9.88;3.50;;;;;;;10.25;45.81;99531.11;1770349;81;21628;-77
2022/04/05 12:45:54;;;;;;;5.50;3.30;;;;;;;10.24;44.77;99528.06;1770692;81;21149;-83
2022/04/05 12:48:59;;;;;;;7.22;3.75;;;;;;;10.20;45.74;99525.35;1770685;81;21162;-82
2022/04/05 12:52:29;;;;;;;4.50;3.33;;;;;;;10.21;46.37;99520.23;1770489;81;21220;-83
2022/04/05 12:55:35;;;;;;;5.60;3.42;;;;;;;10.28;46.20;99509.40;1771440;81;21205;-84
2022/04/05 12:58:52;;;;;;;6.75;3.60;;;;;;;10.29;46.46;99507.83;1771140;81;21225;-77
2022/04/05 13:02:05;;;;;;;4.75;3.65;;;;;;;10.28;46.08;99510.77;1769913;80;21188;-83
2022/04/05 13:08:55;;;;;;;9.00;4.00;;;;;;;10.33;46.56;99502.83;1771525;81;21166;-83
2022/04/05 13:12:16;;;;;;;4.58;3.37;;;;;;;10.36;46.70;99499.72;1771271;81;21181;-76
2022/04/05 13:15:21;;;;;;;4.47;3.50;;;;;;;10.36;46.66;99507.91;1771256;81;21723;-83
2022/04/05 13:18:27;;;;;;;5.83;3.12;;;;;;;10.37;47.12;99494.05;1769747;81;21249;-77
2022/04/05 13:21:34;;;;;;;9.98;3.87;;;;;;;10.34;46.65;99505.87;1771500;81;21125;-77
2022/04/05 13:24:54;;;;;;;8.48;3.95;;;;;;;10.28;46.80;99491.63;1771866;81;21169;-83
2022/04/05 13:28:11;;;;;;;14.15;3.55;;;;;;;10.24;46.78;99496.63;1771743;81;21158;-76
2022/04/05 13:31:22;;;;;;;7.10;3.60;;;;;;;10.20;46.64;99493.40;1771833;81;21147;-77
2022/04/05 13:34:30;;;;;;;;;;;;;;;10.19;46.13;99482.67;1786402;80;21173;-77
2022/04/05 13:37:36;;;;;;;5.50;3.90;;;;;;;10.15;46.70;99480.84;1785579;80;20192;-83
2022/04/05 13:40:42;;;;;;;6.12;3.60;;;;;;;10.12;46.46;99480.41;1785592;80;21141;-82
2022/04/05 13:43:49;;;;;;;5.83;3.50;;;;;;;10.12;46.63;99481.25;1785505;80;21208;-82
2022/04/05 13:46:54;;;;;;;7.33;3.25;;;;;;;10.16;47.16;99489.87;1784154;80;21225;-83
2022/04/05 13:50:02;;;;;;;4.25;3.15;;;;;;;10.14;46.68;99488.72;1785606;80;21154;-78
2022/04/05 13:53:07;;;;;;;10.53;3.95;;;;;;;10.13;46.97;99481.56;1785513;80;21185;-83
2022/04/05 13:56:14;;;;;;;5.83;3.65;;;;;;;10.14;46.89;99479.67;1785518;80;21176;-83
2022/04/05 13:59:20;;;;;;;7.60;3.83;;;;;;;10.13;46.56;99477.99;1785444;80;21176;-77
2022/04/05 14:02:20;;;;;;;8.68;4.60;;;;;;;10.08;46.40;99478.57;1785654;80;21200;-83
2022/04/05 14:05:25;;;;;;;10.13;3.80;;;;;;;10.03;46.98;99477.47;1785575;80;21213;-77
2022/04/05 14:08:31;;;;;;;6.08;3.45;;;;;;;9.97;47.40;99470.37;1785692;80;21216;-83
2022/04/05 14:11:38;;;;;;;6.25;3.27;;;;;;;9.95;47.03;99476.52;1785704;80;21192;-77
2022/04/05 14:14:43;;;;;;;5.47;3.22;;;;;;;9.93;46.98;99472.31;1784822;80;21217;-76
2022/04/05 14:17:50;;;;;;;9.70;4.08;;;;;;;9.94;47.43;99472.11;1785561;80;21208;-79
2022/04/05 14:20:55;;;;;;;4.50;3.45;;;;;;;9.96;47.92;99471.38;1785600;80;21141;-83
2022/04/05 14:24:03;;;;;;;8.53;3.90;;;;;;;9.92;47.11;99472.80;1785670;80;21161;-83
2022/04/05 14:27:09;;;;;;;6.67;4.75;;;;;;;9.87;47.94;99477.16;1785611;80;21207;-83
2022/04/05 14:30:14;;;;;;;6.15;3.80;;;;;;;9.78;48.67;99480.52;1785565;80;21161;-80
2022/04/05 14:33:21;;;;;;;6.17;4.10;;;;;;;9.70;49.33;99476.02;1785114;80;21196;-77
2022/04/05 14:36:26;;;;;;;9.65;4.55;;;;;;;9.65;48.95;99472.18;1771961;81;21181;-83
2022/04/05 14:39:33;;;;;;;9.05;4.62;;;;;;;9.55;48.99;99464.78;1771965;81;21157;-82